createdAt,value
2023-02-14T00:00:49.777Z,81.46
2023-02-14T00:03:16.781Z,79.92
2023-02-14T00:05:43.681Z,78.68
2023-02-14T00:08:10.652Z,76.85
2023-02-14T00:10:37.822Z,76.10
2023-02-14T00:13:05.438Z,75.49
2023-02-14T00:15:32.369Z,74.52
2023-02-14T00:18:03.193Z,76.01
2023-02-14T00:20:30.147Z,80.20
2023-02-14T00:22:57.175Z,80.21
2023-02-14T00:25:24.102Z,82.54
2023-02-14T00:27:51.097Z,85.61
2023-02-14T00:30:18.012Z,86.47
2023-02-14T00:32:44.895Z,87.79
2023-02-14T00:35:12.306Z,90.02
2023-02-14T00:37:41.405Z,89.40
2023-02-14T00:40:09.175Z,87.44
2023-02-14T00:42:36.065Z,88.44
2023-02-14T00:45:03.860Z,88.46
2023-02-14T00:47:30.827Z,88.50
2023-02-14T00:50:02.976Z,88.39
2023-02-14T00:52:31.159Z,89.28
2023-02-14T00:54:58.395Z,87.26
2023-02-14T00:57:25.385Z,86.02
2023-02-14T00:59:52.311Z,87.78
2023-02-14T01:02:21.265Z,89.02
2023-02-14T01:04:48.168Z,89.98
2023-02-14T01:07:15.109Z,90.26
2023-02-14T01:09:42.271Z,92.15
2023-02-14T01:12:09.208Z,92.01
2023-02-14T01:14:36.103Z,92.39
2023-02-14T01:17:03.001Z,93.16
2023-02-14T01:19:29.955Z,92.99
2023-02-14T01:21:56.913Z,91.73
2023-02-14T01:24:25.205Z,91.65
2023-02-14T01:26:52.272Z,91.20
2023-02-14T01:29:19.321Z,92.90
2023-02-14T01:31:48.509Z,92.82
2023-02-14T01:34:15.423Z,92.40
2023-02-14T01:36:42.643Z,91.99
2023-02-14T01:39:15.571Z,92.58
2023-02-14T01:41:50.270Z,91.72
2023-02-14T01:44:17.223Z,91.21
2023-02-14T01:46:47.160Z,91.55
2023-02-14T01:49:19.681Z,91.62
2023-02-14T01:51:53.094Z,91.09
2023-02-14T01:54:24.210Z,91.23
2023-02-14T01:56:57.301Z,90.30
2023-02-14T01:59:27.091Z,88.32
2023-02-14T02:01:54.509Z,89.26
2023-02-14T02:04:28.608Z,90.45
2023-02-14T02:07:01.079Z,87.99
2023-02-14T02:09:37.627Z,88.35
2023-02-14T02:12:05.090Z,87.07
2023-02-14T02:14:32.823Z,85.69
2023-02-14T02:17:24.353Z,85.27
2023-02-14T02:20:12.474Z,84.25
2023-02-14T02:23:17.107Z,83.79
2023-02-14T02:25:59.311Z,84.05
2023-02-14T02:29:02.412Z,84.52
2023-02-14T02:32:13.722Z,87.67
2023-02-14T02:34:58.780Z,87.53
2023-02-14T02:37:34.410Z,86.87
2023-02-14T02:40:15.664Z,87.79
2023-02-14T02:43:19.085Z,87.48
2023-02-14T02:46:14.115Z,86.45
2023-02-14T02:48:48.213Z,87.41
2023-02-14T02:51:46.008Z,87.45
2023-02-14T02:54:51.607Z,86.06
2023-02-14T02:57:25.752Z,85.10
2023-02-14T02:59:56.244Z,85.22
2023-02-14T03:02:32.310Z,84.99
2023-02-14T03:05:05.501Z,84.37
2023-02-14T03:07:37.594Z,84.06
2023-02-14T03:10:15.353Z,83.82
2023-02-14T03:12:43.828Z,83.93
2023-02-14T03:15:32.107Z,83.11
2023-02-14T03:18:57.713Z,83.44
2023-02-14T03:21:33.740Z,82.59
2023-02-14T03:24:24.915Z,83.86
2023-02-14T03:26:56.229Z,83.64
2023-02-14T03:29:31.562Z,84.20
2023-02-14T03:32:11.693Z,84.58
2023-02-14T03:34:43.260Z,84.45
2023-02-14T03:37:46.023Z,83.62
2023-02-14T03:40:30.186Z,83.49
2023-02-14T03:43:10.781Z,83.50
2023-02-14T03:45:44.448Z,84.01
2023-02-14T03:48:14.552Z,83.82
2023-02-14T03:50:45.658Z,85.51
2023-02-14T03:53:17.137Z,86.40
2023-02-14T03:56:24.252Z,85.57
2023-02-14T03:58:56.557Z,84.16
2023-02-14T04:01:55.742Z,82.98
2023-02-14T04:04:27.305Z,83.15
2023-02-14T04:06:54.284Z,82.97
2023-02-14T04:09:21.199Z,85.10
2023-02-14T04:11:50.625Z,89.82
2023-02-14T04:14:17.892Z,92.15
2023-02-14T04:17:03.850Z,93.80
2023-02-14T04:19:30.876Z,93.60
2023-02-14T04:21:57.841Z,94.14
2023-02-14T04:24:24.733Z,95.55
2023-02-14T04:27:05.998Z,96.82
2023-02-14T04:29:32.926Z,96.67
2023-02-14T04:31:59.977Z,96.64
2023-02-14T04:34:27.005Z,96.73
2023-02-14T04:36:53.934Z,95.62
2023-02-14T04:39:20.827Z,94.72
2023-02-14T04:41:47.701Z,94.93
2023-02-14T04:44:14.551Z,94.30
2023-02-14T04:46:41.685Z,93.92
2023-02-14T04:49:08.643Z,93.61
2023-02-14T04:51:35.560Z,93.96
2023-02-14T04:54:02.469Z,92.95
2023-02-14T04:56:29.458Z,92.41
2023-02-14T04:58:56.360Z,90.80
2023-02-14T05:01:23.473Z,89.71
2023-02-14T05:03:50.409Z,88.68
2023-02-14T05:06:17.455Z,87.96
2023-02-14T05:08:44.334Z,86.41
2023-02-14T05:11:11.267Z,84.89
2023-02-14T05:13:38.148Z,84.31
2023-02-14T05:16:05.397Z,84.24
2023-02-14T05:18:32.302Z,83.12
2023-02-14T05:20:59.381Z,80.93
2023-02-14T05:23:26.601Z,79.86
2023-02-14T05:25:53.492Z,78.00
2023-02-14T05:28:20.591Z,75.51
2023-02-14T05:30:47.529Z,75.14
2023-02-14T05:33:14.382Z,74.64
2023-02-14T05:35:41.337Z,74.80
2023-02-14T05:38:08.532Z,71.66
2023-02-14T05:40:35.557Z,64.45
2023-02-14T05:43:02.462Z,61.44
2023-02-14T05:45:29.406Z,60.97
2023-02-14T05:47:56.310Z,59.10
2023-02-14T05:50:23.174Z,55.03
2023-02-14T05:52:54.070Z,50.33
2023-02-14T05:55:21.096Z,48.06
2023-02-14T05:57:48.117Z,45.79
2023-02-14T06:00:15.630Z,43.01
2023-02-14T06:02:42.637Z,40.45
2023-02-14T06:05:09.613Z,39.28
2023-02-14T06:07:36.501Z,38.81
2023-02-14T06:10:03.805Z,39.15
2023-02-14T06:12:30.674Z,40.94
2023-02-14T06:14:57.557Z,41.21
2023-02-14T06:17:24.374Z,40.37
2023-02-14T06:19:51.339Z,39.20
2023-02-14T06:22:18.257Z,40.90
2023-02-14T06:24:45.225Z,43.26
2023-02-14T06:27:12.097Z,44.34
2023-02-14T06:29:39.036Z,43.79
2023-02-14T06:32:07.090Z,44.05
2023-02-14T06:34:34.905Z,44.27
2023-02-14T06:37:01.865Z,46.02
2023-02-14T06:39:28.759Z,44.71
2023-02-14T06:41:55.702Z,47.54
2023-02-14T06:44:22.647Z,50.10
2023-02-14T06:46:49.589Z,48.53
2023-02-14T06:49:16.519Z,47.14
2023-02-14T06:51:43.454Z,42.36
2023-02-14T06:54:10.450Z,40.31
2023-02-14T06:56:37.486Z,38.11
2023-02-14T06:59:04.490Z,38.04
2023-02-14T07:01:31.433Z,39.09
2023-02-14T07:03:58.407Z,41.64
2023-02-14T07:06:25.326Z,45.98
2023-02-14T07:08:52.368Z,49.86
2023-02-14T07:11:19.332Z,49.91
2023-02-14T07:13:47.991Z,51.04
2023-02-14T07:16:16.199Z,53.32
2023-02-14T07:18:43.089Z,54.58
2023-02-14T07:21:10.093Z,58.61
2023-02-14T07:23:36.980Z,58.86
2023-02-14T07:26:03.985Z,57.91
2023-02-14T07:28:31.031Z,59.64
2023-02-14T07:31:01.826Z,58.70
2023-02-14T07:33:28.971Z,57.47
2023-02-14T07:35:56.754Z,58.42
2023-02-14T07:38:24.593Z,57.52
2023-02-14T07:40:54.004Z,56.97
2023-02-14T07:43:20.908Z,56.64
2023-02-14T07:45:48.498Z,58.22
2023-02-14T07:48:15.458Z,57.44
2023-02-14T07:50:42.350Z,54.83
2023-02-14T07:53:09.495Z,56.10
2023-02-14T07:55:36.602Z,55.06
2023-02-14T07:58:03.683Z,53.71
2023-02-14T08:00:30.932Z,53.80
2023-02-14T08:02:57.903Z,52.23
2023-02-14T08:05:24.841Z,51.73
2023-02-14T08:07:51.775Z,52.98
2023-02-14T08:10:18.840Z,53.52
2023-02-14T08:13:00.815Z,53.45
2023-02-14T08:15:48.653Z,53.93
2023-02-14T08:18:17.746Z,54.08
2023-02-14T08:20:51.223Z,52.13
2023-02-14T08:23:19.812Z,52.52
2023-02-14T08:25:48.632Z,51.12
2023-02-14T08:28:15.558Z,50.94
2023-02-14T08:30:44.720Z,52.22
2023-02-14T08:33:12.026Z,49.89
2023-02-14T08:35:39.380Z,49.94
2023-02-14T08:38:06.709Z,49.15
2023-02-14T08:40:35.283Z,48.64
2023-02-14T08:43:02.218Z,46.66
2023-02-14T08:45:29.151Z,45.48
2023-02-14T08:48:01.541Z,46.06
2023-02-14T08:50:28.818Z,47.05
2023-02-14T08:52:55.647Z,47.20
2023-02-14T08:55:22.546Z,46.94
2023-02-14T08:57:49.558Z,46.66
2023-02-14T09:00:17.134Z,47.34
2023-02-14T09:02:44.561Z,46.92
2023-02-14T09:05:11.610Z,45.90
2023-02-14T09:07:38.538Z,46.70
2023-02-14T09:10:06.260Z,45.94
2023-02-14T09:12:33.166Z,46.70
2023-02-14T09:15:00.140Z,44.81
2023-02-14T09:17:27.095Z,44.90
2023-02-14T09:19:54.032Z,43.40
2023-02-14T09:22:22.140Z,42.93
2023-02-14T09:24:49.328Z,40.31
2023-02-14T09:27:16.343Z,40.50
2023-02-14T09:29:43.228Z,40.36
2023-02-14T09:32:10.403Z,38.53
2023-02-14T09:34:37.376Z,37.45
2023-02-14T09:37:22.954Z,37.37
2023-02-14T09:39:49.706Z,34.43
2023-02-14T09:42:42.289Z,34.58
2023-02-14T09:45:29.869Z,38.81
2023-02-14T09:48:12.029Z,38.13
2023-02-14T09:50:42.664Z,37.87
2023-02-14T09:53:15.363Z,38.75
2023-02-14T09:55:52.281Z,36.87
2023-02-14T09:58:33.776Z,35.75
2023-02-14T10:01:19.002Z,36.67
2023-02-14T10:04:18.368Z,35.57
2023-02-14T10:07:12.260Z,36.75
2023-02-14T10:10:00.226Z,37.07
2023-02-14T10:12:33.828Z,34.59
2023-02-14T10:15:08.210Z,35.29
2023-02-14T10:17:40.826Z,35.92
2023-02-14T10:20:18.976Z,36.76
2023-02-14T10:22:55.188Z,36.85
2023-02-14T10:25:44.062Z,37.04
2023-02-14T10:28:16.806Z,39.11
2023-02-14T10:30:56.789Z,36.65
2023-02-14T10:33:30.336Z,36.28
2023-02-14T10:36:06.016Z,33.75
2023-02-14T10:38:32.879Z,34.65
2023-02-14T10:41:24.134Z,35.23
2023-02-14T10:43:57.031Z,35.48
2023-02-14T10:46:24.090Z,31.16
2023-02-14T10:49:12.961Z,31.95
2023-02-14T10:51:44.814Z,32.29
2023-02-14T10:54:29.220Z,32.14
2023-02-14T10:57:02.961Z,29.73
2023-02-14T10:59:44.435Z,28.90
2023-02-14T11:02:16.030Z,29.56
2023-02-14T11:04:46.732Z,29.32
2023-02-14T11:07:19.483Z,29.05
2023-02-14T11:09:46.572Z,30.03
2023-02-14T11:12:34.349Z,30.02
2023-02-14T11:15:19.734Z,31.07
2023-02-14T11:17:46.721Z,30.10
2023-02-14T11:20:22.723Z,29.94
2023-02-14T11:22:50.248Z,30.91
2023-02-14T11:25:31.722Z,31.90
2023-02-14T11:28:04.617Z,31.34
2023-02-14T11:30:39.718Z,31.93
2023-02-14T11:33:09.608Z,30.91
2023-02-14T11:35:37.974Z,30.25
2023-02-14T11:38:07.248Z,30.40
2023-02-14T11:40:38.801Z,30.09
2023-02-14T11:43:14.175Z,32.83
2023-02-14T11:45:44.519Z,31.82
2023-02-14T11:48:37.310Z,30.68
2023-02-14T11:51:11.108Z,32.12
2023-02-14T11:54:00.763Z,31.13
2023-02-14T11:56:46.069Z,34.15
2023-02-14T11:59:24.115Z,33.47
2023-02-14T12:01:52.648Z,34.01
2023-02-14T12:04:38.198Z,33.86
2023-02-14T12:07:14.370Z,32.49
2023-02-14T12:09:43.257Z,33.66
2023-02-14T12:12:23.424Z,34.73
2023-02-14T12:14:50.662Z,35.35
2023-02-14T12:17:36.929Z,34.17
2023-02-14T12:20:12.010Z,34.80
2023-02-14T12:23:03.930Z,35.66
2023-02-14T12:26:00.399Z,37.45
2023-02-14T12:28:57.810Z,37.49
2023-02-14T12:31:24.833Z,38.58
2023-02-14T12:33:51.940Z,39.93
2023-02-14T12:36:43.704Z,36.60
2023-02-14T12:39:27.893Z,32.35
2023-02-14T12:42:23.615Z,34.23
2023-02-14T12:45:08.310Z,35.78
2023-02-14T12:48:02.867Z,37.35
2023-02-14T12:50:37.125Z,38.64
2023-02-14T12:53:22.176Z,35.74
2023-02-14T12:56:16.829Z,32.43
2023-02-14T12:58:56.852Z,29.85
2023-02-14T13:02:05.185Z,26.13
2023-02-14T13:04:47.209Z,28.77
2023-02-14T13:07:45.895Z,26.64
2023-02-14T13:10:49.331Z,25.17
2023-02-14T13:13:25.261Z,28.29
2023-02-14T13:16:05.102Z,27.16
2023-02-14T13:18:53.887Z,25.14
2023-02-14T13:21:26.443Z,25.24
2023-02-14T13:24:27.614Z,29.09
2023-02-14T13:27:03.452Z,29.93
2023-02-14T13:29:45.573Z,32.15
2023-02-14T13:32:16.982Z,31.86
2023-02-14T13:34:47.171Z,34.13
2023-02-14T13:37:17.948Z,35.34
2023-02-14T13:40:15.897Z,37.68
2023-02-14T13:42:51.567Z,38.19
2023-02-14T13:45:35.621Z,39.95
2023-02-14T13:48:11.381Z,38.42
2023-02-14T13:50:41.296Z,38.19
2023-02-14T13:53:13.959Z,38.97
2023-02-14T13:55:45.977Z,39.90
2023-02-14T13:58:21.860Z,38.85
2023-02-14T14:00:49.988Z,36.35
2023-02-14T14:03:28.949Z,38.08
2023-02-14T14:06:04.823Z,39.48
2023-02-14T14:08:32.106Z,40.33
2023-02-14T14:11:27.453Z,41.21
2023-02-14T14:13:58.606Z,40.77
2023-02-14T14:16:28.552Z,41.51
2023-02-14T14:19:30.589Z,41.41
2023-02-14T14:22:15.311Z,41.99
2023-02-14T14:24:55.790Z,43.40
2023-02-14T14:27:45.046Z,43.62
2023-02-14T14:30:28.551Z,43.43
2023-02-14T14:32:55.592Z,45.09
2023-02-14T14:35:25.095Z,44.86
2023-02-14T14:37:55.199Z,44.58
2023-02-14T14:40:26.769Z,44.73
2023-02-14T14:42:55.904Z,45.82
2023-02-14T14:45:28.603Z,46.09
2023-02-14T14:48:00.553Z,45.62
2023-02-14T14:50:31.467Z,44.04
2023-02-14T14:53:03.164Z,45.33
2023-02-14T14:55:33.122Z,46.22
2023-02-14T14:58:05.595Z,47.03
2023-02-14T15:00:35.589Z,47.06
2023-02-14T15:03:02.465Z,47.61
2023-02-14T15:05:33.812Z,47.13
2023-02-14T15:08:27.872Z,48.29
2023-02-14T15:11:00.379Z,48.33
2023-02-14T15:13:51.394Z,48.88
2023-02-14T15:16:23.426Z,47.87
2023-02-14T15:18:52.588Z,47.39
2023-02-14T15:21:20.011Z,48.01
2023-02-14T15:23:47.233Z,48.20
2023-02-14T15:26:29.864Z,48.83
2023-02-14T15:29:00.301Z,49.65
2023-02-14T15:31:31.497Z,49.31
2023-02-14T15:34:01.522Z,50.19
2023-02-14T15:36:30.181Z,50.15
2023-02-14T15:38:58.028Z,50.53
2023-02-14T15:41:27.043Z,50.97
2023-02-14T15:43:56.250Z,51.34
2023-02-14T15:46:34.848Z,52.07
2023-02-14T15:49:08.004Z,51.53
2023-02-14T15:51:36.566Z,51.13
2023-02-14T15:54:18.799Z,50.60
2023-02-14T15:56:49.241Z,50.23
2023-02-14T15:59:23.596Z,50.41
2023-02-14T16:01:58.981Z,50.64
2023-02-14T16:04:26.995Z,50.80
2023-02-14T16:07:29.944Z,51.31
2023-02-14T16:10:24.233Z,52.46
2023-02-14T16:12:58.780Z,52.36
2023-02-14T16:15:32.023Z,51.64
2023-02-14T16:18:01.159Z,52.90
2023-02-14T16:20:39.712Z,52.68
2023-02-14T16:23:39.427Z,53.90
2023-02-14T16:26:06.917Z,53.97
2023-02-14T16:28:36.955Z,53.92
2023-02-14T16:31:10.254Z,55.29
2023-02-14T16:33:41.088Z,55.54
2023-02-14T16:36:27.300Z,54.57
2023-02-14T16:38:54.983Z,55.77
2023-02-14T16:41:29.813Z,54.54
2023-02-14T16:43:57.314Z,55.13
2023-02-14T16:46:29.042Z,55.25
2023-02-14T16:48:57.325Z,56.49
2023-02-14T16:51:27.743Z,56.67
2023-02-14T16:53:57.450Z,56.65
2023-02-14T16:56:28.848Z,56.31
2023-02-14T16:58:59.152Z,56.50
2023-02-14T17:01:26.116Z,56.02
2023-02-14T17:03:53.471Z,56.25
2023-02-14T17:06:23.424Z,57.41
2023-02-14T17:08:52.499Z,56.43
2023-02-14T17:11:20.245Z,56.19
2023-02-14T17:13:48.096Z,56.81
2023-02-14T17:16:16.617Z,56.75
2023-02-14T17:18:49.041Z,57.49
2023-02-14T17:21:18.284Z,57.93
2023-02-14T17:23:45.471Z,58.37
2023-02-14T17:26:12.493Z,58.05
2023-02-14T17:28:39.422Z,57.99
2023-02-14T17:31:06.558Z,57.77
2023-02-14T17:33:33.874Z,58.45
2023-02-14T17:36:06.742Z,57.99
2023-02-14T17:38:36.091Z,58.87
2023-02-14T17:41:23.624Z,59.23
2023-02-14T17:43:53.161Z,58.56
2023-02-14T17:46:20.769Z,58.38
2023-02-14T17:48:49.141Z,59.45
2023-02-14T17:51:18.298Z,59.30
2023-02-14T17:53:46.892Z,59.47
2023-02-14T17:56:18.142Z,59.23
2023-02-14T17:58:47.840Z,59.08
2023-02-14T18:01:16.190Z,60.04
2023-02-14T18:03:43.075Z,60.73
2023-02-14T18:06:11.456Z,59.84
2023-02-14T18:08:49.911Z,59.81
2023-02-14T18:11:18.663Z,59.71
2023-02-14T18:13:46.493Z,59.54
2023-02-14T18:16:16.304Z,58.89
2023-02-14T18:18:43.318Z,57.95
2023-02-14T18:21:12.436Z,58.32
2023-02-14T18:23:39.531Z,58.25
2023-02-14T18:26:10.752Z,58.94
2023-02-14T18:28:38.202Z,60.21
2023-02-14T18:31:17.081Z,60.67
2023-02-14T18:33:45.404Z,59.80
2023-02-14T18:36:15.154Z,59.87
2023-02-14T18:38:44.438Z,59.50
2023-02-14T18:41:16.257Z,59.39
2023-02-14T18:43:44.739Z,59.90
2023-02-14T18:46:20.575Z,59.69
2023-02-14T18:48:48.027Z,59.58
2023-02-14T18:51:16.380Z,59.42
2023-02-14T18:53:44.952Z,60.59
2023-02-14T18:56:14.590Z,61.40
2023-02-14T18:58:44.147Z,61.30
2023-02-14T19:01:13.920Z,61.29
2023-02-14T19:03:41.293Z,60.92
2023-02-14T19:06:09.790Z,61.75
2023-02-14T19:08:39.113Z,62.28
2023-02-14T19:11:21.535Z,62.21
2023-02-14T19:13:53.658Z,61.68
2023-02-14T19:16:24.560Z,61.97
2023-02-14T19:18:53.392Z,61.67
2023-02-14T19:21:26.095Z,61.54
2023-02-14T19:23:56.127Z,61.89
2023-02-14T19:26:33.018Z,61.67
2023-02-14T19:29:04.027Z,61.30
2023-02-14T19:31:36.578Z,61.42
2023-02-14T19:34:05.391Z,61.47
2023-02-14T19:36:35.266Z,61.56
2023-02-14T19:39:03.075Z,62.06
2023-02-14T19:41:31.928Z,62.75
2023-02-14T19:43:59.471Z,63.15
2023-02-14T19:46:27.758Z,63.24
2023-02-14T19:48:56.568Z,63.12
2023-02-14T19:51:26.600Z,61.98
2023-02-14T19:53:54.848Z,62.30
2023-02-14T19:56:24.903Z,63.40
2023-02-14T19:58:52.625Z,63.91
2023-02-14T20:01:22.400Z,64.28
2023-02-14T20:03:49.310Z,64.06
2023-02-14T20:06:16.337Z,63.98
2023-02-14T20:08:43.423Z,63.76
2023-02-14T20:11:20.592Z,62.47
2023-02-14T20:13:47.911Z,62.92
2023-02-14T20:16:14.926Z,62.66
2023-02-14T20:18:41.909Z,62.53
2023-02-14T20:21:17.214Z,62.79
2023-02-14T20:23:44.935Z,62.76
2023-02-14T20:26:16.153Z,62.57
2023-02-14T20:28:43.608Z,63.02
2023-02-14T20:31:12.602Z,63.36
2023-02-14T20:33:40.502Z,62.98
2023-02-14T20:36:08.900Z,63.49
2023-02-14T20:38:36.064Z,63.50
2023-02-14T20:41:12.100Z,64.39
2023-02-14T20:43:39.729Z,64.23
2023-02-14T20:46:07.325Z,64.08
2023-02-14T20:48:34.945Z,63.99
2023-02-14T20:51:18.196Z,63.84
2023-02-14T20:53:46.210Z,63.44
2023-02-14T20:56:14.598Z,64.79
2023-02-14T20:58:42.031Z,64.59
2023-02-14T21:01:10.096Z,63.84
2023-02-14T21:03:37.721Z,63.34
2023-02-14T21:06:07.202Z,63.13
2023-02-14T21:08:35.336Z,62.92
2023-02-14T21:11:04.543Z,62.42
2023-02-14T21:13:31.788Z,62.15
2023-02-14T21:16:04.007Z,62.14
2023-02-14T21:18:32.060Z,61.44
2023-02-14T21:21:18.942Z,62.28
2023-02-14T21:23:52.206Z,62.34
2023-02-14T21:26:21.355Z,62.30
2023-02-14T21:28:48.646Z,63.12
2023-02-14T21:31:18.096Z,63.01
2023-02-14T21:33:45.260Z,63.52
2023-02-14T21:36:17.372Z,63.70
2023-02-14T21:38:45.019Z,63.80
2023-02-14T21:41:15.148Z,64.49
2023-02-14T21:43:44.125Z,63.96
2023-02-14T21:46:14.324Z,64.49
2023-02-14T21:49:00.707Z,64.78
2023-02-14T21:51:27.925Z,64.85
2023-02-14T21:53:56.281Z,65.05
2023-02-14T21:56:23.966Z,64.36
2023-02-14T21:58:53.105Z,64.22
2023-02-14T22:01:25.462Z,64.51
2023-02-14T22:03:53.130Z,63.63
2023-02-14T22:06:20.490Z,63.25
2023-02-14T22:08:52.296Z,64.32
2023-02-14T22:11:19.409Z,64.65
2023-02-14T22:13:46.397Z,64.63
2023-02-14T22:16:15.647Z,65.03
2023-02-14T22:18:42.953Z,65.70
2023-02-14T22:21:12.402Z,64.88
2023-02-14T22:23:39.982Z,65.61
2023-02-14T22:26:15.369Z,66.27
2023-02-14T22:28:43.181Z,66.48
2023-02-14T22:31:10.586Z,65.55
2023-02-14T22:33:38.080Z,65.81
2023-02-14T22:36:06.495Z,66.07
2023-02-14T22:38:34.305Z,65.93
2023-02-14T22:41:09.784Z,65.50
2023-02-14T22:43:37.048Z,65.55
2023-02-14T22:46:12.290Z,65.94
2023-02-14T22:48:40.659Z,66.90
2023-02-14T22:51:21.024Z,66.79
2023-02-14T22:53:48.898Z,66.81
2023-02-14T22:56:17.196Z,66.90
2023-02-14T22:58:44.616Z,66.06
2023-02-14T23:01:16.814Z,66.77
2023-02-14T23:03:44.843Z,66.87
2023-02-14T23:06:12.660Z,66.78
2023-02-14T23:08:43.858Z,66.43
2023-02-14T23:11:13.786Z,66.70
2023-02-14T23:14:00.595Z,66.46
2023-02-14T23:16:46.359Z,65.96
2023-02-14T23:19:34.824Z,65.61
2023-02-14T23:22:05.995Z,64.99
2023-02-14T23:24:33.009Z,65.27
2023-02-14T23:27:00.276Z,65.72
2023-02-14T23:29:27.173Z,65.23
2023-02-14T23:31:54.201Z,65.08
2023-02-14T23:34:25.414Z,64.72
2023-02-14T23:36:52.441Z,64.50
2023-02-14T23:39:19.374Z,64.02
2023-02-14T23:41:49.280Z,64.41
2023-02-14T23:44:21.567Z,65.01
2023-02-14T23:46:50.566Z,65.15
2023-02-14T23:49:18.739Z,64.54
2023-02-14T23:51:47.642Z,64.50
2023-02-14T23:54:15.063Z,64.53
2023-02-14T23:56:42.232Z,64.59
2023-02-14T23:59:10.115Z,64.75
